Terminal Aerodrome Forecast
Issued by NWS

Home | Current Version | Previous Version | Text Only | Print | Product List | Glossary On
Versions: 1 2 3 4 5 6 7 8 9 10 11 12 13 14 15 16 17 18 19
000
FTUS43 KGRR 011738
TAFBTL
TAF
KBTL 011738Z 0118/0218 05008KT P6SM OVC007
     FM012100 05010KT P6SM VCSH OVC015
      TEMPO 0121/0124 OVC007
     FM020300 04010KT 6SM BR VCSH OVC007
     FM021500 05008KT P6SM BKN015=

USA.gov is the U.S. government's official web portal to all federal, state and local government web resources and services.